createdAt,value
2019-02-22T00:00:01.026Z,0.7
2019-02-22T00:05:02.017Z,0.6
2019-02-22T00:15:00.975Z,0.6
2019-02-22T00:20:00.910Z,0.5
2019-02-22T00:30:00.920Z,0.5
2019-02-22T00:45:05.983Z,0.5
2019-02-22T01:00:00.985Z,0.5
2019-02-22T01:15:01.107Z,0.5
2019-02-22T01:25:01.174Z,0.5
2019-02-22T01:30:00.958Z,0.6
2019-02-22T01:35:01.023Z,0.7
2019-02-22T01:40:00.945Z,0.7
2019-02-22T01:45:01.023Z,0.8
2019-02-22T01:55:00.934Z,0.7
2019-02-22T02:00:00.897Z,0.7
2019-02-22T02:05:02.258Z,0.6
2019-02-22T02:10:00.943Z,0.6
2019-02-22T02:15:00.998Z,0.6
2019-02-22T02:30:01.135Z,0.5
2019-02-22T02:35:01.139Z,0.5
2019-02-22T02:45:01.006Z,0.5
2019-02-22T03:00:02.112Z,0.6
2019-02-22T03:15:01.016Z,0.5
2019-02-22T03:30:01.014Z,0.4
2019-02-22T03:45:01.035Z,0.3
2019-02-22T04:00:01.036Z,0.3
2019-02-22T04:15:02.314Z,0.3
2019-02-22T04:30:01.032Z,0.3
2019-02-22T04:40:01.136Z,0.3
2019-02-22T04:45:00.971Z,0.3
2019-02-22T05:00:01.094Z,0.4
2019-02-22T05:15:13.069Z,0.5
2019-02-22T05:25:01.047Z,0.5
2019-02-22T05:30:00.988Z,0.4
2019-02-22T05:40:01.050Z,0.4
2019-02-22T05:45:01.115Z,0.4
2019-02-22T06:00:01.079Z,0.3
2019-02-22T06:10:02.427Z,0.3
2019-02-22T06:15:01.186Z,0.3
2019-02-22T06:30:01.146Z,0.4
2019-02-22T06:45:01.133Z,0.4
2019-02-22T07:00:01.138Z,1.1
2019-02-22T07:10:01.076Z,1.8
2019-02-22T07:15:01.401Z,1.8
2019-02-22T07:20:01.056Z,1.9
2019-02-22T07:25:01.111Z,1.8
2019-02-22T07:30:01.048Z,2.5
2019-02-22T07:35:01.177Z,2.3
2019-02-22T07:40:01.074Z,2.3
2019-02-22T07:45:01.111Z,2.3
2019-02-22T07:50:01.053Z,2.2
2019-02-22T07:55:01.144Z,2.0
2019-02-22T08:00:01.059Z,1.8
2019-02-22T08:05:01.191Z,1.6
2019-02-22T08:10:01.188Z,1.5
2019-02-22T08:15:01.194Z,1.6
2019-02-22T08:30:01.159Z,1.7
2019-02-22T08:45:01.095Z,1.6
2019-02-22T08:50:01.040Z,1.7
2019-02-22T08:55:01.145Z,1.7
2019-02-22T09:00:01.038Z,2.1
2019-02-22T09:05:01.101Z,2.2
2019-02-22T09:10:01.076Z,2.1
2019-02-22T09:15:01.306Z,2.3
2019-02-22T09:20:01.074Z,2.9
2019-02-22T09:25:01.148Z,3.0
2019-02-22T09:30:01.073Z,3.5
2019-02-22T09:35:01.143Z,3.5
2019-02-22T09:45:06.120Z,3.4
2019-02-22T09:50:01.038Z,3.3
2019-02-22T09:55:01.193Z,3.1
2019-02-22T10:00:01.058Z,3.4
2019-02-22T10:05:01.123Z,3.3
2019-02-22T10:10:01.054Z,3.3
2019-02-22T10:15:01.204Z,2.9
2019-02-22T10:20:02.213Z,3.2
2019-02-22T10:25:01.179Z,3.2
2019-02-22T10:30:01.249Z,3.2
2019-02-22T10:35:01.125Z,3.3
2019-02-22T10:40:01.063Z,3.4
2019-02-22T10:45:01.090Z,3.9
2019-02-22T10:50:01.064Z,4.0
2019-02-22T11:00:01.149Z,4.1
2019-02-22T11:05:01.133Z,4.1
2019-02-22T11:10:01.204Z,4.1
2019-02-22T11:15:01.196Z,3.8
2019-02-22T11:20:01.067Z,4.0
2019-02-22T11:25:01.170Z,3.8
2019-02-22T11:30:06.088Z,3.9
2019-02-22T11:35:01.203Z,3.7
2019-02-22T11:40:01.123Z,3.9
2019-02-22T11:45:01.142Z,3.4
2019-02-22T11:50:01.069Z,3.6
2019-02-22T11:55:01.146Z,3.2
2019-02-22T12:00:01.081Z,3.1
2019-02-22T12:20:00.522Z,2.3
2019-02-22T12:25:00.625Z,2.6
2019-02-22T12:30:00.382Z,2.9
2019-02-22T12:45:03.688Z,3.2
2019-02-22T12:50:00.548Z,3.4
2019-02-22T12:55:00.454Z,3.4
2019-02-22T13:00:00.584Z,3.4
2019-02-22T13:05:00.496Z,3.4
2019-02-22T13:10:00.499Z,3.3
2019-02-22T13:15:00.633Z,3.1
2019-02-22T13:25:00.770Z,2.9
2019-02-22T13:30:00.527Z,3.2
2019-02-22T13:35:00.710Z,3.6
2019-02-22T13:40:00.597Z,3.8
2019-02-22T13:45:00.548Z,4.3
2019-02-22T13:55:00.781Z,4.3
2019-02-22T14:00:02.074Z,4.3
2019-02-22T14:05:00.526Z,4.1
2019-02-22T14:10:00.500Z,3.8
2019-02-22T14:15:00.556Z,4.0
2019-02-22T14:20:00.500Z,3.7
2019-02-22T14:25:01.189Z,4.0
2019-02-22T14:30:00.603Z,4.5
2019-02-22T14:35:00.530Z,4.8
2019-02-22T14:40:04.076Z,5.7
2019-02-22T14:45:02.078Z,6.7
2019-02-22T14:55:00.743Z,7.1
2019-02-22T15:00:00.477Z,6.7
2019-02-22T15:05:00.568Z,5.8
2019-02-22T15:10:00.507Z,5.2
2019-02-22T15:15:01.146Z,5.2
2019-02-22T15:20:00.615Z,4.6
2019-02-22T15:25:00.561Z,5.0
2019-02-22T15:30:00.635Z,4.8
2019-02-22T15:35:00.583Z,4.7
2019-02-22T15:40:00.857Z,4.4
2019-02-22T15:45:00.551Z,4.2
2019-02-22T15:50:00.430Z,4.1
2019-02-22T15:55:00.489Z,4.2
2019-02-22T16:00:00.899Z,4.1
2019-02-22T16:05:01.400Z,4.5
2019-02-22T16:10:00.665Z,4.4
2019-02-22T16:15:00.557Z,4.3
2019-02-22T16:20:00.625Z,4.5
2019-02-22T16:25:01.239Z,4.4
2019-02-22T16:30:00.494Z,4.4
2019-02-22T16:35:00.579Z,4.6
2019-02-22T16:40:00.493Z,4.8
2019-02-22T16:45:00.764Z,4.5
2019-02-22T16:50:00.503Z,4.4
2019-02-22T17:00:00.438Z,4.3
2019-02-22T17:05:00.574Z,4.3
2019-02-22T17:10:00.460Z,4.3
2019-02-22T17:15:00.575Z,4.0
2019-02-22T17:20:00.651Z,3.8
2019-02-22T17:25:00.542Z,3.8
2019-02-22T17:30:00.506Z,3.5
2019-02-22T17:35:00.509Z,3.4
2019-02-22T17:40:00.451Z,3.5
2019-02-22T17:45:00.733Z,3.8
2019-02-22T17:50:02.378Z,3.7
2019-02-22T17:55:01.557Z,3.8
2019-02-22T18:00:01.149Z,3.9
2019-02-22T18:05:00.536Z,3.7
2019-02-22T18:10:00.530Z,3.4
2019-02-22T18:15:00.694Z,3.2
2019-02-22T18:20:00.531Z,3.0
2019-02-22T18:25:00.597Z,3.0
2019-02-22T18:30:00.647Z,3.0
2019-02-22T18:35:00.517Z,2.8
2019-02-22T18:40:00.475Z,2.8
2019-02-22T18:45:00.682Z,2.6
2019-02-22T18:50:00.494Z,2.5
2019-02-22T18:55:00.615Z,2.4
2019-02-22T19:00:00.593Z,2.5
2019-02-22T19:05:00.545Z,2.3
2019-02-22T19:10:00.484Z,2.3
2019-02-22T19:15:00.780Z,2.4
2019-02-22T19:20:00.590Z,2.3
2019-02-22T19:25:00.639Z,2.4
2019-02-22T19:30:00.535Z,2.1
2019-02-22T19:40:00.633Z,2.1
2019-02-22T19:45:00.528Z,2.2
2019-02-22T19:55:00.736Z,2.5
2019-02-22T20:00:00.545Z,2.6
2019-02-22T20:15:00.577Z,2.4
2019-02-22T20:20:00.517Z,2.4
2019-02-22T20:25:00.716Z,2.2
2019-02-22T20:30:00.526Z,2.1
2019-02-22T20:35:00.585Z,1.9
2019-02-22T20:45:00.553Z,1.9
2019-02-22T20:55:00.553Z,2.2
2019-02-22T21:00:00.538Z,2.3
2019-02-22T21:10:00.686Z,2.4
2019-02-22T21:15:00.557Z,2.5
2019-02-22T21:20:00.865Z,2.1
2019-02-22T21:25:00.624Z,2.0
2019-02-22T21:30:00.739Z,2.0
2019-02-22T21:40:01.230Z,1.8
2019-02-22T21:45:00.570Z,1.9
2019-02-22T21:50:00.486Z,1.7
2019-02-22T21:55:00.575Z,1.7
2019-02-22T22:00:00.505Z,1.7
2019-02-22T22:10:02.465Z,1.9
2019-02-22T22:15:00.723Z,2.2
2019-02-22T22:20:00.698Z,2.2
2019-02-22T22:25:00.983Z,2.3
2019-02-22T22:30:00.637Z,2.3
2019-02-22T22:35:00.627Z,2.2
2019-02-22T22:40:00.670Z,2.2
2019-02-22T22:45:00.607Z,2.4
2019-02-22T22:50:00.609Z,2.3
2019-02-22T22:55:00.838Z,2.5
2019-02-22T23:00:00.569Z,2.6
2019-02-22T23:05:00.677Z,2.4
2019-02-22T23:10:00.565Z,2.2
2019-02-22T23:15:01.257Z,2.2
2019-02-22T23:20:00.568Z,1.9
2019-02-22T23:25:01.613Z,1.8
2019-02-22T23:30:00.554Z,1.9
2019-02-22T23:40:00.530Z,2.1
2019-02-22T23:45:00.654Z,2.2
2019-02-22T23:50:00.513Z,2.1
